sensor_id;sensor_type;location;lat;lon;timestamp;P1;durP1;ratioP1;P2;durP2;ratioP2
31114;SDS011;17764;47.152;9.828;2023-03-01T00:01:49;18.27;;;14.90;;
31114;SDS011;17764;47.152;9.828;2023-03-01T00:04:15;19.23;;;14.13;;
31114;SDS011;17764;47.152;9.828;2023-03-01T00:06:42;19.30;;;15.73;;
31114;SDS011;17764;47.152;9.828;2023-03-01T00:09:13;18.07;;;14.70;;
31114;SDS011;17764;47.152;9.828;2023-03-01T00:11:39;19.57;;;15.40;;
31114;SDS011;17764;47.152;9.828;2023-03-01T00:14:08;18.57;;;14.90;;
31114;SDS011;17764;47.152;9.828;2023-03-01T00:16:38;17.77;;;15.87;;
31114;SDS011;17764;47.152;9.828;2023-03-01T00:19:06;18.73;;;15.13;;
31114;SDS011;17764;47.152;9.828;2023-03-01T00:21:33;19.70;;;15.13;;
31114;SDS011;17764;47.152;9.828;2023-03-01T00:24:01;18.63;;;14.93;;
31114;SDS011;17764;47.152;9.828;2023-03-01T00:26:27;17.60;;;14.67;;
31114;SDS011;17764;47.152;9.828;2023-03-01T00:28:54;18.90;;;14.63;;
31114;SDS011;17764;47.152;9.828;2023-03-01T00:31:22;18.23;;;14.70;;
31114;SDS011;17764;47.152;9.828;2023-03-01T00:33:48;22.03;;;16.27;;
31114;SDS011;17764;47.152;9.828;2023-03-01T00:36:17;21.00;;;16.00;;
31114;SDS011;17764;47.152;9.828;2023-03-01T00:38:44;20.20;;;15.63;;
31114;SDS011;17764;47.152;9.828;2023-03-01T00:41:11;19.60;;;15.50;;
31114;SDS011;17764;47.152;9.828;2023-03-01T00:43:37;19.03;;;16.03;;
31114;SDS011;17764;47.152;9.828;2023-03-01T00:46:04;19.97;;;15.60;;
31114;SDS011;17764;47.152;9.828;2023-03-01T00:48:31;18.57;;;15.13;;
31114;SDS011;17764;47.152;9.828;2023-03-01T00:50:57;18.57;;;15.37;;
31114;SDS011;17764;47.152;9.828;2023-03-01T00:53:23;17.93;;;14.67;;
31114;SDS011;17764;47.152;9.828;2023-03-01T00:55:49;19.53;;;15.40;;
31114;SDS011;17764;47.152;9.828;2023-03-01T00:58:15;23.23;;;16.17;;
31114;SDS011;17764;47.152;9.828;2023-03-01T01:00:42;19.10;;;15.23;;
31114;SDS011;17764;47.152;9.828;2023-03-01T01:03:08;20.10;;;15.73;;
31114;SDS011;17764;47.152;9.828;2023-03-01T01:05:34;19.70;;;15.07;;
31114;SDS011;17764;47.152;9.828;2023-03-01T01:08:01;21.47;;;16.30;;
31114;SDS011;17764;47.152;9.828;2023-03-01T01:10:27;21.10;;;16.03;;
31114;SDS011;17764;47.152;9.828;2023-03-01T01:12:54;23.13;;;17.43;;
31114;SDS011;17764;47.152;9.828;2023-03-01T01:15:21;20.43;;;15.73;;
31114;SDS011;17764;47.152;9.828;2023-03-01T01:17:47;18.63;;;15.47;;
31114;SDS011;17764;47.152;9.828;2023-03-01T01:20:13;19.40;;;15.73;;
31114;SDS011;17764;47.152;9.828;2023-03-01T01:22:39;20.03;;;15.87;;
31114;SDS011;17764;47.152;9.828;2023-03-01T01:25:06;20.37;;;16.60;;
31114;SDS011;17764;47.152;9.828;2023-03-01T01:27:32;21.80;;;16.67;;
31114;SDS011;17764;47.152;9.828;2023-03-01T01:29:58;21.23;;;16.70;;
31114;SDS011;17764;47.152;9.828;2023-03-01T01:32:24;20.40;;;16.20;;
31114;SDS011;17764;47.152;9.828;2023-03-01T01:34:50;21.53;;;16.63;;
31114;SDS011;17764;47.152;9.828;2023-03-01T01:37:16;20.63;;;15.67;;
31114;SDS011;17764;47.152;9.828;2023-03-01T01:39:43;19.57;;;16.43;;
31114;SDS011;17764;47.152;9.828;2023-03-01T01:42:14;20.47;;;17.10;;
31114;SDS011;17764;47.152;9.828;2023-03-01T01:44:42;21.13;;;16.13;;
31114;SDS011;17764;47.152;9.828;2023-03-01T01:47:12;20.60;;;16.47;;
31114;SDS011;17764;47.152;9.828;2023-03-01T01:49:46;19.57;;;16.10;;
31114;SDS011;17764;47.152;9.828;2023-03-01T01:52:26;22.07;;;16.83;;
31114;SDS011;17764;47.152;9.828;2023-03-01T01:55:04;19.30;;;15.87;;
31114;SDS011;17764;47.152;9.828;2023-03-01T01:57:33;19.90;;;16.33;;
31114;SDS011;17764;47.152;9.828;2023-03-01T02:00:05;22.27;;;16.63;;
31114;SDS011;17764;47.152;9.828;2023-03-01T02:02:33;23.00;;;17.37;;
31114;SDS011;17764;47.152;9.828;2023-03-01T02:05:09;17.87;;;15.10;;
31114;SDS011;17764;47.152;9.828;2023-03-01T02:07:38;21.50;;;16.33;;
31114;SDS011;17764;47.152;9.828;2023-03-01T02:10:05;21.73;;;15.87;;
31114;SDS011;17764;47.152;9.828;2023-03-01T02:12:31;22.93;;;16.50;;
31114;SDS011;17764;47.152;9.828;2023-03-01T02:14:58;21.50;;;16.50;;
31114;SDS011;17764;47.152;9.828;2023-03-01T02:17:23;23.83;;;17.33;;
31114;SDS011;17764;47.152;9.828;2023-03-01T02:19:53;22.30;;;17.10;;
31114;SDS011;17764;47.152;9.828;2023-03-01T02:22:23;22.23;;;17.57;;
31114;SDS011;17764;47.152;9.828;2023-03-01T02:24:59;20.47;;;16.30;;
31114;SDS011;17764;47.152;9.828;2023-03-01T02:27:40;23.03;;;17.83;;
31114;SDS011;17764;47.152;9.828;2023-03-01T02:30:09;22.23;;;17.63;;
31114;SDS011;17764;47.152;9.828;2023-03-01T02:32:37;21.47;;;17.17;;
31114;SDS011;17764;47.152;9.828;2023-03-01T02:35:06;22.20;;;17.77;;
31114;SDS011;17764;47.152;9.828;2023-03-01T02:37:33;19.97;;;15.93;;
31114;SDS011;17764;47.152;9.828;2023-03-01T02:40:03;22.07;;;16.90;;
31114;SDS011;17764;47.152;9.828;2023-03-01T02:42:33;25.47;;;18.47;;
31114;SDS011;17764;47.152;9.828;2023-03-01T02:45:06;22.00;;;17.67;;
31114;SDS011;17764;47.152;9.828;2023-03-01T02:47:32;20.83;;;17.43;;
31114;SDS011;17764;47.152;9.828;2023-03-01T02:49:58;23.70;;;18.20;;
31114;SDS011;17764;47.152;9.828;2023-03-01T02:55:09;22.17;;;17.40;;
31114;SDS011;17764;47.152;9.828;2023-03-01T02:57:39;23.90;;;17.57;;
31114;SDS011;17764;47.152;9.828;2023-03-01T03:00:07;23.10;;;17.37;;
31114;SDS011;17764;47.152;9.828;2023-03-01T03:02:47;22.40;;;17.43;;
31114;SDS011;17764;47.152;9.828;2023-03-01T03:05:15;23.43;;;17.53;;
31114;SDS011;17764;47.152;9.828;2023-03-01T03:07:42;22.47;;;17.60;;
31114;SDS011;17764;47.152;9.828;2023-03-01T03:10:14;21.57;;;17.80;;
31114;SDS011;17764;47.152;9.828;2023-03-01T03:12:40;22.93;;;18.20;;
31114;SDS011;17764;47.152;9.828;2023-03-01T03:15:07;21.07;;;16.83;;
31114;SDS011;17764;47.152;9.828;2023-03-01T03:17:34;24.50;;;18.43;;
31114;SDS011;17764;47.152;9.828;2023-03-01T03:20:01;21.80;;;16.87;;
31114;SDS011;17764;47.152;9.828;2023-03-01T03:22:28;22.60;;;18.63;;
31114;SDS011;17764;47.152;9.828;2023-03-01T03:24:54;22.50;;;17.43;;
31114;SDS011;17764;47.152;9.828;2023-03-01T03:27:20;24.63;;;18.87;;
31114;SDS011;17764;47.152;9.828;2023-03-01T03:29:46;22.03;;;17.77;;
31114;SDS011;17764;47.152;9.828;2023-03-01T03:32:12;22.57;;;17.50;;
31114;SDS011;17764;47.152;9.828;2023-03-01T03:34:41;21.87;;;17.23;;
31114;SDS011;17764;47.152;9.828;2023-03-01T03:37:06;21.90;;;17.73;;
31114;SDS011;17764;47.152;9.828;2023-03-01T03:39:52;21.77;;;17.53;;
31114;SDS011;17764;47.152;9.828;2023-03-01T03:42:20;21.87;;;17.67;;
31114;SDS011;17764;47.152;9.828;2023-03-01T03:44:47;24.23;;;18.70;;
31114;SDS011;17764;47.152;9.828;2023-03-01T03:47:13;23.03;;;18.27;;
31114;SDS011;17764;47.152;9.828;2023-03-01T03:49:39;24.60;;;19.47;;
31114;SDS011;17764;47.152;9.828;2023-03-01T03:52:05;22.67;;;18.43;;
31114;SDS011;17764;47.152;9.828;2023-03-01T03:54:38;23.27;;;18.67;;
31114;SDS011;17764;47.152;9.828;2023-03-01T03:57:04;25.10;;;19.83;;
31114;SDS011;17764;47.152;9.828;2023-03-01T03:59:30;24.03;;;19.30;;
31114;SDS011;17764;47.152;9.828;2023-03-01T04:01:56;24.63;;;18.87;;
31114;SDS011;17764;47.152;9.828;2023-03-01T04:04:22;24.77;;;19.33;;
31114;SDS011;17764;47.152;9.828;2023-03-01T04:06:48;25.00;;;18.90;;
31114;SDS011;17764;47.152;9.828;2023-03-01T04:09:14;24.30;;;18.13;;
31114;SDS011;17764;47.152;9.828;2023-03-01T04:11:40;24.20;;;18.03;;
31114;SDS011;17764;47.152;9.828;2023-03-01T04:14:06;22.53;;;18.27;;
31114;SDS011;17764;47.152;9.828;2023-03-01T04:16:32;24.37;;;18.53;;
31114;SDS011;17764;47.152;9.828;2023-03-01T04:18:58;23.10;;;18.00;;
31114;SDS011;17764;47.152;9.828;2023-03-01T04:21:25;24.83;;;18.83;;
31114;SDS011;17764;47.152;9.828;2023-03-01T04:23:51;25.30;;;19.90;;
31114;SDS011;17764;47.152;9.828;2023-03-01T04:26:18;23.50;;;19.10;;
31114;SDS011;17764;47.152;9.828;2023-03-01T04:28:44;24.30;;;19.57;;
31114;SDS011;17764;47.152;9.828;2023-03-01T04:31:14;24.27;;;18.47;;
31114;SDS011;17764;47.152;9.828;2023-03-01T04:33:47;24.83;;;18.50;;
31114;SDS011;17764;47.152;9.828;2023-03-01T04:36:14;23.20;;;18.53;;
31114;SDS011;17764;47.152;9.828;2023-03-01T04:38:40;23.93;;;18.37;;
31114;SDS011;17764;47.152;9.828;2023-03-01T04:41:12;24.80;;;19.40;;
31114;SDS011;17764;47.152;9.828;2023-03-01T04:43:38;24.97;;;19.53;;
31114;SDS011;17764;47.152;9.828;2023-03-01T04:46:05;27.00;;;20.40;;
31114;SDS011;17764;47.152;9.828;2023-03-01T04:48:33;25.37;;;19.70;;
31114;SDS011;17764;47.152;9.828;2023-03-01T04:50:59;26.00;;;19.77;;
31114;SDS011;17764;47.152;9.828;2023-03-01T04:53:26;22.63;;;18.17;;
31114;SDS011;17764;47.152;9.828;2023-03-01T04:55:53;25.30;;;18.70;;
31114;SDS011;17764;47.152;9.828;2023-03-01T04:58:19;25.57;;;19.00;;
31114;SDS011;17764;47.152;9.828;2023-03-01T05:00:45;27.20;;;19.13;;
31114;SDS011;17764;47.152;9.828;2023-03-01T05:03:11;24.30;;;18.50;;
31114;SDS011;17764;47.152;9.828;2023-03-01T05:05:41;24.50;;;18.50;;
31114;SDS011;17764;47.152;9.828;2023-03-01T05:08:09;24.00;;;18.20;;
31114;SDS011;17764;47.152;9.828;2023-03-01T05:10:42;22.17;;;17.90;;
31114;SDS011;17764;47.152;9.828;2023-03-01T05:13:08;22.30;;;17.47;;
31114;SDS011;17764;47.152;9.828;2023-03-01T05:15:34;22.30;;;18.50;;
31114;SDS011;17764;47.152;9.828;2023-03-01T05:18:01;24.63;;;17.57;;
31114;SDS011;17764;47.152;9.828;2023-03-01T05:20:28;23.33;;;19.30;;
31114;SDS011;17764;47.152;9.828;2023-03-01T05:22:55;24.23;;;18.93;;
31114;SDS011;17764;47.152;9.828;2023-03-01T05:25:21;24.23;;;17.57;;
31114;SDS011;17764;47.152;9.828;2023-03-01T05:27:47;23.20;;;18.03;;
31114;SDS011;17764;47.152;9.828;2023-03-01T05:30:13;26.13;;;19.07;;
31114;SDS011;17764;47.152;9.828;2023-03-01T05:35:08;24.30;;;18.33;;
31114;SDS011;17764;47.152;9.828;2023-03-01T05:37:34;24.07;;;18.33;;
31114;SDS011;17764;47.152;9.828;2023-03-01T05:40:01;25.00;;;18.17;;
31114;SDS011;17764;47.152;9.828;2023-03-01T05:42:28;23.00;;;18.33;;
31114;SDS011;17764;47.152;9.828;2023-03-01T05:44:54;24.03;;;18.13;;
31114;SDS011;17764;47.152;9.828;2023-03-01T05:47:20;23.53;;;18.23;;
31114;SDS011;17764;47.152;9.828;2023-03-01T05:49:47;23.27;;;16.70;;
31114;SDS011;17764;47.152;9.828;2023-03-01T05:52:15;23.33;;;17.60;;
31114;SDS011;17764;47.152;9.828;2023-03-01T05:54:41;21.80;;;17.03;;
31114;SDS011;17764;47.152;9.828;2023-03-01T05:57:06;22.07;;;17.50;;
31114;SDS011;17764;47.152;9.828;2023-03-01T05:59:32;23.93;;;18.20;;
31114;SDS011;17764;47.152;9.828;2023-03-01T06:01:58;21.97;;;16.90;;
31114;SDS011;17764;47.152;9.828;2023-03-01T06:04:25;23.87;;;18.60;;
31114;SDS011;17764;47.152;9.828;2023-03-01T06:06:50;24.57;;;19.33;;
31114;SDS011;17764;47.152;9.828;2023-03-01T06:09:16;25.73;;;18.50;;
31114;SDS011;17764;47.152;9.828;2023-03-01T06:11:42;24.33;;;18.03;;
31114;SDS011;17764;47.152;9.828;2023-03-01T06:14:08;25.47;;;18.47;;
31114;SDS011;17764;47.152;9.828;2023-03-01T06:16:35;22.80;;;18.07;;
31114;SDS011;17764;47.152;9.828;2023-03-01T06:19:01;25.80;;;19.00;;
31114;SDS011;17764;47.152;9.828;2023-03-01T06:21:27;24.73;;;18.30;;
31114;SDS011;17764;47.152;9.828;2023-03-01T06:23:53;25.43;;;18.93;;
31114;SDS011;17764;47.152;9.828;2023-03-01T06:26:19;23.80;;;18.70;;
31114;SDS011;17764;47.152;9.828;2023-03-01T06:28:47;24.60;;;18.13;;
31114;SDS011;17764;47.152;9.828;2023-03-01T06:31:13;23.17;;;18.30;;
31114;SDS011;17764;47.152;9.828;2023-03-01T06:33:39;23.63;;;18.17;;
31114;SDS011;17764;47.152;9.828;2023-03-01T06:36:06;22.60;;;17.47;;
31114;SDS011;17764;47.152;9.828;2023-03-01T06:38:32;23.57;;;17.50;;
31114;SDS011;17764;47.152;9.828;2023-03-01T06:40:59;23.13;;;18.20;;
31114;SDS011;17764;47.152;9.828;2023-03-01T06:43:26;23.70;;;18.17;;
31114;SDS011;17764;47.152;9.828;2023-03-01T06:45:52;24.47;;;17.37;;
31114;SDS011;17764;47.152;9.828;2023-03-01T06:48:18;24.00;;;17.60;;
31114;SDS011;17764;47.152;9.828;2023-03-01T06:50:44;24.07;;;17.60;;
31114;SDS011;17764;47.152;9.828;2023-03-01T06:53:10;23.43;;;16.97;;
31114;SDS011;17764;47.152;9.828;2023-03-01T06:55:36;25.20;;;17.77;;
31114;SDS011;17764;47.152;9.828;2023-03-01T06:58:02;22.87;;;17.70;;
31114;SDS011;17764;47.152;9.828;2023-03-01T07:00:28;22.90;;;17.57;;
31114;SDS011;17764;47.152;9.828;2023-03-01T07:02:57;23.13;;;17.67;;
31114;SDS011;17764;47.152;9.828;2023-03-01T07:05:23;26.53;;;17.70;;
31114;SDS011;17764;47.152;9.828;2023-03-01T07:07:49;24.27;;;18.37;;
31114;SDS011;17764;47.152;9.828;2023-03-01T07:10:17;24.33;;;18.43;;
31114;SDS011;17764;47.152;9.828;2023-03-01T07:12:43;22.03;;;16.23;;
31114;SDS011;17764;47.152;9.828;2023-03-01T07:15:09;23.53;;;17.97;;
31114;SDS011;17764;47.152;9.828;2023-03-01T07:17:35;22.90;;;16.30;;
31114;SDS011;17764;47.152;9.828;2023-03-01T07:20:01;21.53;;;16.60;;
31114;SDS011;17764;47.152;9.828;2023-03-01T07:22:27;21.40;;;16.20;;
31114;SDS011;17764;47.152;9.828;2023-03-01T07:24:53;20.67;;;15.30;;
31114;SDS011;17764;47.152;9.828;2023-03-01T07:27:19;22.63;;;15.80;;
31114;SDS011;17764;47.152;9.828;2023-03-01T07:29:45;22.57;;;17.03;;
31114;SDS011;17764;47.152;9.828;2023-03-01T07:32:11;21.23;;;16.73;;
31114;SDS011;17764;47.152;9.828;2023-03-01T07:34:37;21.70;;;17.30;;
31114;SDS011;17764;47.152;9.828;2023-03-01T07:37:03;21.57;;;16.27;;
31114;SDS011;17764;47.152;9.828;2023-03-01T07:39:29;21.67;;;15.67;;
31114;SDS011;17764;47.152;9.828;2023-03-01T07:41:56;21.13;;;15.17;;
31114;SDS011;17764;47.152;9.828;2023-03-01T07:44:23;19.93;;;15.30;;
31114;SDS011;17764;47.152;9.828;2023-03-01T07:46:49;19.23;;;14.77;;
31114;SDS011;17764;47.152;9.828;2023-03-01T07:49:23;19.10;;;14.47;;
31114;SDS011;17764;47.152;9.828;2023-03-01T07:51:51;20.10;;;15.53;;
31114;SDS011;17764;47.152;9.828;2023-03-01T07:54:17;19.33;;;15.17;;
31114;SDS011;17764;47.152;9.828;2023-03-01T07:56:43;19.40;;;14.57;;
31114;SDS011;17764;47.152;9.828;2023-03-01T07:59:09;19.93;;;14.83;;
31114;SDS011;17764;47.152;9.828;2023-03-01T08:01:35;21.23;;;15.03;;
31114;SDS011;17764;47.152;9.828;2023-03-01T08:04:02;18.17;;;14.07;;
31114;SDS011;17764;47.152;9.828;2023-03-01T08:06:31;19.23;;;15.13;;
31114;SDS011;17764;47.152;9.828;2023-03-01T08:08:59;21.63;;;14.93;;
31114;SDS011;17764;47.152;9.828;2023-03-01T08:11:25;19.57;;;15.17;;
31114;SDS011;17764;47.152;9.828;2023-03-01T08:13:53;20.60;;;14.20;;
31114;SDS011;17764;47.152;9.828;2023-03-01T08:16:19;22.53;;;15.57;;
31114;SDS011;17764;47.152;9.828;2023-03-01T08:18:45;19.77;;;15.13;;
31114;SDS011;17764;47.152;9.828;2023-03-01T08:21:15;19.60;;;15.23;;
31114;SDS011;17764;47.152;9.828;2023-03-01T08:23:42;19.93;;;15.00;;
31114;SDS011;17764;47.152;9.828;2023-03-01T08:26:18;21.07;;;15.70;;
31114;SDS011;17764;47.152;9.828;2023-03-01T08:28:49;18.67;;;14.40;;
31114;SDS011;17764;47.152;9.828;2023-03-01T08:31:22;20.97;;;15.97;;
31114;SDS011;17764;47.152;9.828;2023-03-01T08:33:50;19.53;;;14.53;;
31114;SDS011;17764;47.152;9.828;2023-03-01T08:36:20;20.10;;;14.97;;
31114;SDS011;17764;47.152;9.828;2023-03-01T08:38:46;20.23;;;15.40;;
31114;SDS011;17764;47.152;9.828;2023-03-01T08:41:12;20.17;;;14.97;;
31114;SDS011;17764;47.152;9.828;2023-03-01T08:43:38;22.00;;;15.60;;
31114;SDS011;17764;47.152;9.828;2023-03-01T08:46:04;21.50;;;16.00;;
31114;SDS011;17764;47.152;9.828;2023-03-01T08:48:30;19.57;;;14.40;;
31114;SDS011;17764;47.152;9.828;2023-03-01T08:50:56;22.33;;;15.53;;
31114;SDS011;17764;47.152;9.828;2023-03-01T08:53:22;20.87;;;15.13;;
31114;SDS011;17764;47.152;9.828;2023-03-01T08:55:48;20.73;;;15.83;;
31114;SDS011;17764;47.152;9.828;2023-03-01T08:58:14;20.93;;;15.83;;
31114;SDS011;17764;47.152;9.828;2023-03-01T09:00:40;21.30;;;16.47;;
31114;SDS011;17764;47.152;9.828;2023-03-01T09:03:06;19.40;;;15.97;;
31114;SDS011;17764;47.152;9.828;2023-03-01T09:05:32;19.10;;;15.20;;
31114;SDS011;17764;47.152;9.828;2023-03-01T09:07:59;21.07;;;15.60;;
31114;SDS011;17764;47.152;9.828;2023-03-01T09:10:25;22.60;;;16.13;;
31114;SDS011;17764;47.152;9.828;2023-03-01T09:12:54;21.43;;;15.63;;
31114;SDS011;17764;47.152;9.828;2023-03-01T09:15:20;20.77;;;15.87;;
31114;SDS011;17764;47.152;9.828;2023-03-01T09:17:46;22.77;;;16.30;;
31114;SDS011;17764;47.152;9.828;2023-03-01T09:20:12;21.33;;;15.80;;
31114;SDS011;17764;47.152;9.828;2023-03-01T09:22:39;21.77;;;15.83;;
31114;SDS011;17764;47.152;9.828;2023-03-01T09:25:05;22.07;;;15.93;;
31114;SDS011;17764;47.152;9.828;2023-03-01T09:27:31;21.33;;;15.60;;
31114;SDS011;17764;47.152;9.828;2023-03-01T09:29:57;20.57;;;15.23;;
31114;SDS011;17764;47.152;9.828;2023-03-01T09:32:23;23.17;;;16.40;;
31114;SDS011;17764;47.152;9.828;2023-03-01T09:34:49;23.27;;;16.60;;
31114;SDS011;17764;47.152;9.828;2023-03-01T09:37:36;21.67;;;14.87;;
31114;SDS011;17764;47.152;9.828;2023-03-01T09:40:12;28.27;;;16.30;;
31114;SDS011;17764;47.152;9.828;2023-03-01T09:42:45;22.50;;;16.03;;
31114;SDS011;17764;47.152;9.828;2023-03-01T09:45:15;23.37;;;16.40;;
31114;SDS011;17764;47.152;9.828;2023-03-01T09:47:45;21.20;;;15.43;;
31114;SDS011;17764;47.152;9.828;2023-03-01T09:50:13;20.83;;;15.17;;
31114;SDS011;17764;47.152;9.828;2023-03-01T09:52:46;21.37;;;16.57;;
31114;SDS011;17764;47.152;9.828;2023-03-01T09:55:25;20.43;;;15.33;;
31114;SDS011;17764;47.152;9.828;2023-03-01T09:57:56;21.47;;;15.67;;
31114;SDS011;17764;47.152;9.828;2023-03-01T10:05:34;23.33;;;16.27;;
31114;SDS011;17764;47.152;9.828;2023-03-01T10:13:00;20.10;;;15.07;;
31114;SDS011;17764;47.152;9.828;2023-03-01T10:15:34;21.57;;;15.50;;
31114;SDS011;17764;47.152;9.828;2023-03-01T10:18:06;22.63;;;16.00;;
31114;SDS011;17764;47.152;9.828;2023-03-01T10:23:05;22.77;;;15.97;;
31114;SDS011;17764;47.152;9.828;2023-03-01T10:28:05;21.00;;;15.53;;
31114;SDS011;17764;47.152;9.828;2023-03-01T10:30:37;20.30;;;15.43;;
31114;SDS011;17764;47.152;9.828;2023-03-01T10:33:07;21.70;;;15.23;;
31114;SDS011;17764;47.152;9.828;2023-03-01T10:35:39;20.90;;;15.57;;
31114;SDS011;17764;47.152;9.828;2023-03-01T10:38:10;21.43;;;15.70;;
31114;SDS011;17764;47.152;9.828;2023-03-01T10:43:56;23.63;;;16.87;;
31114;SDS011;17764;47.152;9.828;2023-03-01T10:46:36;19.80;;;14.40;;
31114;SDS011;17764;47.152;9.828;2023-03-01T10:49:21;22.00;;;15.73;;
31114;SDS011;17764;47.152;9.828;2023-03-01T10:51:49;19.67;;;14.93;;
31114;SDS011;17764;47.152;9.828;2023-03-01T10:56:51;20.83;;;15.27;;
31114;SDS011;17764;47.152;9.828;2023-03-01T10:59:35;19.87;;;14.77;;
31114;SDS011;17764;47.152;9.828;2023-03-01T11:04:28;17.83;;;13.93;;
31114;SDS011;17764;47.152;9.828;2023-03-01T11:06:58;17.83;;;13.73;;
31114;SDS011;17764;47.152;9.828;2023-03-01T11:09:25;20.00;;;14.77;;
31114;SDS011;17764;47.152;9.828;2023-03-01T11:11:55;16.90;;;13.20;;
31114;SDS011;17764;47.152;9.828;2023-03-01T11:14:23;17.27;;;12.83;;
31114;SDS011;17764;47.152;9.828;2023-03-01T11:17:03;17.60;;;13.40;;
31114;SDS011;17764;47.152;9.828;2023-03-01T11:19:40;21.37;;;15.30;;
31114;SDS011;17764;47.152;9.828;2023-03-01T11:22:13;21.47;;;13.83;;
31114;SDS011;17764;47.152;9.828;2023-03-01T11:24:47;17.43;;;13.87;;
31114;SDS011;17764;47.152;9.828;2023-03-01T11:27:24;18.83;;;14.80;;
31114;SDS011;17764;47.152;9.828;2023-03-01T11:30:04;20.80;;;14.60;;
31114;SDS011;17764;47.152;9.828;2023-03-01T11:32:42;17.97;;;14.13;;
31114;SDS011;17764;47.152;9.828;2023-03-01T11:35:16;17.83;;;14.07;;
31114;SDS011;17764;47.152;9.828;2023-03-01T11:40:28;18.57;;;14.40;;
31114;SDS011;17764;47.152;9.828;2023-03-01T11:45:22;19.77;;;15.07;;
31114;SDS011;17764;47.152;9.828;2023-03-01T11:50:17;20.00;;;14.87;;
31114;SDS011;17764;47.152;9.828;2023-03-01T12:12:00;20.13;;;15.10;;
31114;SDS011;17764;47.152;9.828;2023-03-01T12:19:46;20.97;;;15.73;;
31114;SDS011;17764;47.152;9.828;2023-03-01T12:24:59;18.63;;;13.97;;
31114;SDS011;17764;47.152;9.828;2023-03-01T12:33:06;19.17;;;13.97;;
31114;SDS011;17764;47.152;9.828;2023-03-01T12:43:10;18.27;;;14.23;;
31114;SDS011;17764;47.152;9.828;2023-03-01T12:51:46;19.23;;;14.10;;
31114;SDS011;17764;47.152;9.828;2023-03-01T12:54:16;19.77;;;14.37;;
31114;SDS011;17764;47.152;9.828;2023-03-01T12:56:42;17.10;;;13.13;;
31114;SDS011;17764;47.152;9.828;2023-03-01T12:59:18;16.67;;;13.80;;
31114;SDS011;17764;47.152;9.828;2023-03-01T13:11:53;16.83;;;13.80;;
31114;SDS011;17764;47.152;9.828;2023-03-01T13:16:54;18.93;;;14.43;;
31114;SDS011;17764;47.152;9.828;2023-03-01T13:19:21;17.20;;;13.80;;
31114;SDS011;17764;47.152;9.828;2023-03-01T13:21:49;17.37;;;13.40;;
31114;SDS011;17764;47.152;9.828;2023-03-01T13:24:28;19.60;;;15.13;;
31114;SDS011;17764;47.152;9.828;2023-03-01T13:32:26;20.60;;;14.60;;
31114;SDS011;17764;47.152;9.828;2023-03-01T13:34:57;21.67;;;15.47;;
31114;SDS011;17764;47.152;9.828;2023-03-01T13:37:24;17.87;;;14.23;;
31114;SDS011;17764;47.152;9.828;2023-03-01T13:39:51;20.87;;;14.40;;
31114;SDS011;17764;47.152;9.828;2023-03-01T13:44:54;17.70;;;13.80;;
31114;SDS011;17764;47.152;9.828;2023-03-01T13:47:20;19.97;;;14.00;;
31114;SDS011;17764;47.152;9.828;2023-03-01T13:49:59;19.33;;;13.63;;
31114;SDS011;17764;47.152;9.828;2023-03-01T13:54:58;17.33;;;13.73;;
31114;SDS011;17764;47.152;9.828;2023-03-01T13:57:26;15.47;;;13.23;;
31114;SDS011;17764;47.152;9.828;2023-03-01T13:59:55;17.87;;;13.40;;
31114;SDS011;17764;47.152;9.828;2023-03-01T14:02:21;18.03;;;14.77;;
31114;SDS011;17764;47.152;9.828;2023-03-01T14:04:57;17.80;;;14.27;;
31114;SDS011;17764;47.152;9.828;2023-03-01T14:07:24;15.80;;;14.00;;
31114;SDS011;17764;47.152;9.828;2023-03-01T14:09:51;20.27;;;14.53;;
31114;SDS011;17764;47.152;9.828;2023-03-01T14:12:21;16.03;;;13.37;;
31114;SDS011;17764;47.152;9.828;2023-03-01T14:20:24;17.70;;;14.57;;
31114;SDS011;17764;47.152;9.828;2023-03-01T14:22:54;18.40;;;14.13;;
31114;SDS011;17764;47.152;9.828;2023-03-01T14:25:23;17.30;;;14.00;;
31114;SDS011;17764;47.152;9.828;2023-03-01T14:27:56;18.63;;;14.67;;
31114;SDS011;17764;47.152;9.828;2023-03-01T14:30:38;17.63;;;14.03;;
31114;SDS011;17764;47.152;9.828;2023-03-01T14:33:17;19.30;;;16.03;;
31114;SDS011;17764;47.152;9.828;2023-03-01T14:35:51;18.23;;;14.53;;
31114;SDS011;17764;47.152;9.828;2023-03-01T14:38:21;17.33;;;13.47;;
31114;SDS011;17764;47.152;9.828;2023-03-01T14:40:47;16.93;;;14.03;;
31114;SDS011;17764;47.152;9.828;2023-03-01T14:43:18;17.00;;;13.77;;
31114;SDS011;17764;47.152;9.828;2023-03-01T14:45:49;17.60;;;14.10;;
31114;SDS011;17764;47.152;9.828;2023-03-01T14:48:16;15.73;;;13.00;;
31114;SDS011;17764;47.152;9.828;2023-03-01T14:50:43;17.27;;;13.80;;
31114;SDS011;17764;47.152;9.828;2023-03-01T14:53:19;17.93;;;13.97;;
31114;SDS011;17764;47.152;9.828;2023-03-01T14:55:46;19.00;;;13.43;;
31114;SDS011;17764;47.152;9.828;2023-03-01T14:58:18;17.60;;;14.17;;
31114;SDS011;17764;47.152;9.828;2023-03-01T15:00:47;16.70;;;13.83;;
31114;SDS011;17764;47.152;9.828;2023-03-01T15:05:50;16.00;;;13.20;;
31114;SDS011;17764;47.152;9.828;2023-03-01T15:08:18;16.20;;;13.40;;
31114;SDS011;17764;47.152;9.828;2023-03-01T15:11:17;15.87;;;13.30;;
31114;SDS011;17764;47.152;9.828;2023-03-01T15:13:32;19.47;;;13.63;;
31114;SDS011;17764;47.152;9.828;2023-03-01T15:18:33;15.60;;;12.63;;
31114;SDS011;17764;47.152;9.828;2023-03-01T15:21:13;16.33;;;12.90;;
31114;SDS011;17764;47.152;9.828;2023-03-01T15:23:40;19.43;;;13.97;;
31114;SDS011;17764;47.152;9.828;2023-03-01T15:26:16;17.70;;;13.27;;
31114;SDS011;17764;47.152;9.828;2023-03-01T15:28:49;17.00;;;13.17;;
31114;SDS011;17764;47.152;9.828;2023-03-01T15:31:25;18.20;;;13.07;;
31114;SDS011;17764;47.152;9.828;2023-03-01T15:34:06;15.43;;;12.97;;
31114;SDS011;17764;47.152;9.828;2023-03-01T15:38:59;16.43;;;12.97;;
31114;SDS011;17764;47.152;9.828;2023-03-01T15:43:51;15.40;;;12.63;;
31114;SDS011;17764;47.152;9.828;2023-03-01T15:46:30;17.83;;;13.57;;
31114;SDS011;17764;47.152;9.828;2023-03-01T15:49:00;17.97;;;13.53;;
31114;SDS011;17764;47.152;9.828;2023-03-01T15:51:28;15.23;;;12.80;;
31114;SDS011;17764;47.152;9.828;2023-03-01T15:53:55;18.90;;;12.47;;
31114;SDS011;17764;47.152;9.828;2023-03-01T15:56:22;16.67;;;13.07;;
31114;SDS011;17764;47.152;9.828;2023-03-01T15:58:48;15.43;;;12.93;;
31114;SDS011;17764;47.152;9.828;2023-03-01T16:01:15;17.47;;;13.07;;
31114;SDS011;17764;47.152;9.828;2023-03-01T16:03:41;18.07;;;13.60;;
31114;SDS011;17764;47.152;9.828;2023-03-01T16:06:10;15.20;;;12.03;;
31114;SDS011;17764;47.152;9.828;2023-03-01T16:08:37;17.10;;;13.90;;
31114;SDS011;17764;47.152;9.828;2023-03-01T16:11:14;18.47;;;13.20;;
31114;SDS011;17764;47.152;9.828;2023-03-01T16:13:42;17.03;;;13.33;;
31114;SDS011;17764;47.152;9.828;2023-03-01T16:16:09;17.53;;;12.87;;
31114;SDS011;17764;47.152;9.828;2023-03-01T16:18:39;15.63;;;12.80;;
31114;SDS011;17764;47.152;9.828;2023-03-01T16:21:05;15.60;;;12.97;;
31114;SDS011;17764;47.152;9.828;2023-03-01T16:23:31;15.97;;;12.47;;
31114;SDS011;17764;47.152;9.828;2023-03-01T16:26:01;17.10;;;12.60;;
31114;SDS011;17764;47.152;9.828;2023-03-01T16:28:27;17.43;;;13.27;;
31114;SDS011;17764;47.152;9.828;2023-03-01T16:30:53;16.80;;;13.70;;